Time;durP1;ratioP1;P1;durP2;ratioP2;P2;SDS_P1;SDS_P2;PMS_P1;PMS_P2;Temp;Humidity;BMP_temperature;BMP_pressure;BME280_temperature;BME280_humidity;BME280_pressure;Samples;Min_cycle;Max_cycle;Signal;HPM_P1;HPM_P2
2023/01/18 04:48:58;;;;;;;5.03;0.70;;;11.20;56.00;;;;;;5778387;23;20048;-75
2023/01/18 04:51:24;;;;;;;6.68;1.05;;;11.30;56.60;;;;;;4900427;29;20056;-73
2023/01/18 04:53:50;;;;;;;9.38;1.48;;;11.20;56.90;;;;;;4897333;29;20120;-73
2023/01/18 04:56:16;;;;;;;9.32;0.90;;;11.20;57.70;;;;;;4879834;29;20051;-72
2023/01/18 04:58:43;;;;;;;6.95;1.25;;;11.20;58.10;;;;;;4890766;29;20040;-74
2023/01/18 05:01:13;;;;;;;4.28;0.90;;;11.30;58.70;;;;;;4875476;29;20128;-72
2023/01/18 05:03:40;;;;;;;9.25;1.13;;;11.40;58.50;;;;;;4890593;29;20068;-74
2023/01/18 05:06:11;;;;;;;7.15;1.75;;;11.50;58.50;;;;;;4876242;29;20052;-72
2023/01/18 05:08:40;;;;;;;7.90;1.02;;;11.70;58.50;;;;;;4890128;29;20430;-73
2023/01/18 05:11:12;;;;;;;3.20;0.93;;;11.90;58.40;;;;;;4892434;29;20127;-69
2023/01/18 05:13:38;;;;;;;6.63;1.00;;;12.10;58.30;;;;;;4893646;29;20052;-76
2023/01/18 05:16:05;;;;;;;4.43;0.80;;;12.20;57.90;;;;;;4892817;29;20095;-75
2023/01/18 05:18:31;;;;;;;4.25;0.98;;;12.30;57.70;;;;;;4889782;29;20344;-74
2023/01/18 05:20:57;;;;;;;13.38;1.23;;;12.40;57.70;;;;;;4890584;29;20059;-75
2023/01/18 05:23:23;;;;;;;8.88;0.90;;;12.60;57.70;;;;;;4875328;29;20048;-75
2023/01/18 05:25:53;;;;;;;4.00;0.60;;;12.70;57.60;;;;;;4892335;29;20097;-72
2023/01/18 05:28:19;;;;;;;8.85;1.60;;;12.80;57.50;;;;;;4892854;29;20460;-75
2023/01/18 05:30:46;;;;;;;4.45;0.80;;;12.80;57.30;;;;;;4892490;29;20037;-74
2023/01/18 05:33:12;;;;;;;5.00;0.82;;;12.90;57.30;;;;;;4890780;29;20053;-73
2023/01/18 05:35:38;;;;;;;7.72;1.00;;;13.00;57.10;;;;;;4893355;29;20056;-75
2023/01/18 05:38:03;;;;;;;4.32;0.88;;;13.00;57.10;;;;;;4893028;29;20048;-76
2023/01/18 05:40:29;;;;;;;8.00;1.38;;;13.10;57.10;;;;;;4866490;29;20044;-77
2023/01/18 05:42:55;;;;;;;12.05;2.00;;;13.00;56.40;;;;;;4897779;29;20057;-78
2023/01/18 05:45:21;;;;;;;19.13;2.42;;;13.10;55.70;;;;;;4899359;29;20068;-77
2023/01/18 05:47:46;;;;;;;22.73;2.47;;;13.20;58.10;;;;;;4899481;29;20032;-77
2023/01/18 05:50:15;;;;;;;11.77;1.90;;;13.30;58.90;;;;;;4883469;29;20044;-76
2023/01/18 05:52:41;;;;;;;11.15;1.65;;;13.40;59.10;;;;;;4918280;29;20059;-75
2023/01/18 05:55:07;;;;;;;15.90;1.92;;;13.40;59.10;;;;;;4918486;29;20065;-78
2023/01/18 05:57:33;;;;;;;17.05;2.05;;;13.60;59.10;;;;;;4918309;29;20062;-76
2023/01/18 05:59:59;;;;;;;12.50;1.80;;;13.60;59.10;;;;;;4917857;29;20471;-75
2023/01/18 06:02:24;;;;;;;9.63;2.10;;;13.60;59.10;;;;;;4918188;29;20048;-74
2023/01/18 06:04:50;;;;;;;15.05;1.50;;;13.80;59.20;;;;;;4918195;29;20066;-75
2023/01/18 06:07:16;;;;;;;14.27;1.33;;;13.80;59.20;;;;;;4918164;29;20040;-73
2023/01/18 06:09:42;;;;;;;9.68;1.80;;;13.80;59.40;;;;;;4918419;29;20471;-72
2023/01/18 06:12:10;;;;;;;9.55;2.05;;;13.90;59.70;;;;;;4917493;29;20102;-78
2023/01/18 06:14:35;;;;;;;19.88;2.90;;;13.90;59.70;;;;;;4917726;29;20059;-74
2023/01/18 06:17:01;;;;;;;15.23;2.38;;;14.00;59.90;;;;;;4918337;29;20380;-75
2023/01/18 06:19:27;;;;;;;13.35;2.08;;;14.10;60.30;;;;;;4918480;29;20114;-75
2023/01/18 06:21:53;;;;;;;12.07;1.92;;;14.10;60.30;;;;;;4916463;29;20044;-76
2023/01/18 06:24:19;;;;;;;11.18;2.35;;;14.20;59.80;;;;;;4918346;29;20091;-76
2023/01/18 06:26:45;;;;;;;15.95;2.40;;;14.20;59.30;;;;;;4920578;29;20051;-77
2023/01/18 06:29:10;;;;;;;6.35;2.17;;;14.30;58.50;;;;;;4905155;29;20363;-73
2023/01/18 06:31:36;;;;;;;13.43;2.38;;;14.40;57.50;;;;;;4921843;29;20159;-76
2023/01/18 06:34:08;;;;;;;13.60;1.88;;;14.40;56.50;;;;;;4921423;29;20036;-80
2023/01/18 06:36:35;;;;;;;10.35;1.70;;;14.40;56.20;;;;;;4921673;29;20482;-77
2023/01/18 06:39:01;;;;;;;11.73;2.00;;;14.40;56.30;;;;;;4921614;29;20075;-76
2023/01/18 06:41:28;;;;;;;8.75;1.75;;;14.50;56.50;;;;;;4921755;29;20360;-76
2023/01/18 06:43:54;;;;;;;18.98;2.90;;;14.50;56.80;;;;;;4921419;29;20052;-75
2023/01/18 06:46:20;;;;;;;12.55;2.38;;;14.60;56.90;;;;;;4920263;29;20067;-77
2023/01/18 06:48:45;;;;;;;17.58;1.95;;;14.60;56.90;;;;;;4896062;29;20048;-78
2023/01/18 06:51:11;;;;;;;16.02;2.58;;;14.60;57.10;;;;;;4918363;29;20075;-77
2023/01/18 06:53:37;;;;;;;16.25;2.15;;;14.60;57.10;;;;;;4921750;29;20076;-75
2023/01/18 06:56:04;;;;;;;19.58;2.65;;;14.60;56.80;;;;;;4917645;29;20048;-76
2023/01/18 06:58:31;;;;;;;17.70;2.88;;;14.60;57.30;;;;;;4921258;29;20052;-74
2023/01/18 07:00:59;;;;;;;27.08;3.85;;;14.60;57.40;;;;;;4920485;29;20066;-73
2023/01/18 07:03:26;;;;;;;23.95;4.32;;;14.70;57.60;;;;;;4920889;29;20083;-75
2023/01/18 07:05:53;;;;;;;29.75;4.53;;;14.80;57.60;;;;;;4904342;29;20055;-71
2023/01/18 07:08:19;;;;;;;20.35;3.50;;;14.80;57.80;;;;;;4921297;29;20055;-73
2023/01/18 07:10:46;;;;;;;38.15;4.32;;;14.80;58.10;;;;;;4921269;29;20059;-74
2023/01/18 07:13:12;;;;;;;28.23;4.57;;;14.80;58.30;;;;;;4904303;29;20474;-73
2023/01/18 07:15:38;;;;;;;25.52;3.92;;;14.80;58.70;;;;;;4920518;29;20048;-77
2023/01/18 07:18:04;;;;;;;24.63;4.32;;;14.90;58.60;;;;;;4899366;29;20048;-73
2023/01/18 07:20:29;;;;;;;23.85;3.50;;;14.90;58.50;;;;;;4919423;29;20059;-78
2023/01/18 07:22:55;;;;;;;28.08;4.85;;;14.90;58.50;;;;;;4920948;29;20048;-74
2023/01/18 07:25:21;;;;;;;27.35;3.20;;;15.00;58.40;;;;;;4920516;29;20095;-72
2023/01/18 07:27:47;;;;;;;27.58;2.92;;;15.00;58.40;;;;;;4920281;29;20059;-75
2023/01/18 07:30:14;;;;;;;17.92;3.42;;;15.00;58.30;;;;;;4902917;29;20052;-70
2023/01/18 07:32:47;;;;;;;14.45;3.75;;;15.10;58.10;;;;;;4919297;29;20120;-69
2023/01/18 07:35:13;;;;;;;12.82;2.83;;;15.10;58.10;;;;;;4903468;29;20048;-70
2023/01/18 07:37:39;;;;;;;16.95;2.63;;;15.10;58.10;;;;;;4919834;29;20048;-71
2023/01/18 07:40:05;;;;;;;21.67;3.13;;;15.10;58.30;;;;;;4920403;29;20119;-70
2023/01/18 07:42:31;;;;;;;13.82;3.00;;;15.10;58.40;;;;;;4920109;29;20079;-70
2023/01/18 07:44:57;;;;;;;19.40;2.17;;;15.20;58.50;;;;;;4920283;29;20094;-70
2023/01/18 07:47:22;;;;;;;15.38;2.35;;;15.20;58.30;;;;;;4920384;29;20066;-71
2023/01/18 07:49:48;;;;;;;18.88;2.08;;;15.30;58.30;;;;;;4920113;29;20060;-71
2023/01/18 07:52:14;;;;;;;13.85;2.20;;;15.30;58.50;;;;;;4920704;29;20059;-69
2023/01/18 07:54:39;;;;;;;16.52;2.63;;;15.30;58.60;;;;;;4916477;29;20052;-69
2023/01/18 07:57:05;;;;;;;16.38;3.67;;;15.30;58.80;;;;;;4910789;29;20091;-70
2023/01/18 07:59:32;;;;;;;11.35;2.20;;;15.00;57.80;;;;;;4913186;29;20070;-70
2023/01/18 08:02:02;;;;;;;12.32;2.05;;;15.10;58.70;;;;;;4912570;29;20487;-71
2023/01/18 08:04:28;;;;;;;9.40;2.30;;;15.10;58.60;;;;;;4910631;29;20044;-69
2023/01/18 08:06:57;;;;;;;8.00;2.13;;;15.10;58.40;;;;;;4910448;29;20059;-69
2023/01/18 08:09:22;;;;;;;8.15;2.72;;;15.10;58.20;;;;;;4911582;29;20048;-70
2023/01/18 08:11:48;;;;;;;6.43;2.97;;;15.10;58.10;;;;;;4909786;29;20135;-70
2023/01/18 08:14:14;;;;;;;13.02;2.75;;;15.10;58.00;;;;;;4910481;29;20123;-69
2023/01/18 08:16:39;;;;;;;12.13;3.47;;;15.00;58.00;;;;;;4910507;29;20527;-69
2023/01/18 08:19:05;;;;;;;7.88;2.70;;;15.00;58.00;;;;;;4909669;29;20049;-70
2023/01/18 08:21:32;;;;;;;8.38;3.10;;;14.90;58.00;;;;;;4909353;29;20037;-71
2023/01/18 08:23:58;;;;;;;8.02;3.17;;;14.90;58.00;;;;;;4911372;29;20464;-71
2023/01/18 08:26:24;;;;;;;7.97;3.00;;;14.80;58.00;;;;;;4912614;29;20127;-68
2023/01/18 08:28:50;;;;;;;7.30;3.08;;;14.70;58.00;;;;;;4892566;29;20126;-70
2023/01/18 08:31:22;;;;;;;10.52;2.92;;;14.60;58.10;;;;;;4910509;29;20136;-71
2023/01/18 08:33:49;;;;;;;6.33;2.97;;;14.60;58.10;;;;;;4909635;29;20119;-69
2023/01/18 08:36:21;;;;;;;6.53;2.85;;;14.50;58.20;;;;;;4910046;29;20095;-70
2023/01/18 08:38:52;;;;;;;10.48;3.30;;;14.50;58.20;;;;;;4892300;29;20048;-70
2023/01/18 08:41:19;;;;;;;9.32;3.58;;;14.40;58.30;;;;;;4911840;29;20527;-71
2023/01/18 08:43:49;;;;;;;5.22;3.13;;;14.40;58.40;;;;;;4908876;29;20083;-70
2023/01/18 08:46:15;;;;;;;4.10;2.67;;;14.30;58.40;;;;;;4908028;29;20080;-71
2023/01/18 08:48:42;;;;;;;6.47;2.72;;;14.30;58.50;;;;;;4910061;29;20063;-71
2023/01/18 08:51:09;;;;;;;4.65;2.22;;;14.20;58.50;;;;;;4910181;29;20152;-71
2023/01/18 08:53:34;;;;;;;5.70;3.25;;;14.20;58.90;;;;;;4908847;29;20048;-72
2023/01/18 08:56:07;;;;;;;5.65;2.78;;;14.10;59.20;;;;;;4893718;29;20063;-73
2023/01/18 08:58:33;;;;;;;11.63;2.95;;;14.10;59.40;;;;;;4910642;29;20068;-72
2023/01/18 09:01:02;;;;;;;10.00;3.17;;;14.10;59.80;;;;;;4912394;29;20040;-71
2023/01/18 09:03:28;;;;;;;10.48;2.97;;;14.00;59.80;;;;;;4911168;29;20123;-70
2023/01/18 09:05:54;;;;;;;6.78;2.38;;;14.00;59.70;;;;;;4912530;29;20091;-69
2023/01/18 09:08:20;;;;;;;10.13;3.10;;;14.00;59.70;;;;;;4910662;29;20455;-68
2023/01/18 09:10:46;;;;;;;7.40;3.50;;;14.00;59.70;;;;;;4890344;29;20122;-69
2023/01/18 09:13:12;;;;;;;6.10;2.30;;;13.90;59.70;;;;;;4912289;29;20052;-68
2023/01/18 09:15:38;;;;;;;12.20;2.95;;;13.90;59.70;;;;;;4910058;29;20128;-67
2023/01/18 09:18:05;;;;;;;11.77;3.03;;;13.90;59.80;;;;;;4911639;29;20075;-69
2023/01/18 09:20:34;;;;;;;9.50;2.63;;;13.80;59.90;;;;;;4912857;29;20110;-69
2023/01/18 09:23:06;;;;;;;7.72;2.67;;;13.80;60.00;;;;;;4910253;29;20177;-68
2023/01/18 09:25:33;;;;;;;7.50;2.28;;;13.80;60.10;;;;;;4912249;29;20486;-69
2023/01/18 09:28:01;;;;;;;9.95;2.50;;;13.80;60.30;;;;;;4918845;29;20368;-70
2023/01/18 09:30:27;;;;;;;8.43;2.30;;;13.70;60.30;;;;;;4918779;29;20127;-69
2023/01/18 09:32:53;;;;;;;8.82;2.67;;;13.60;59.40;;;;;;4918845;29;20192;-68
2023/01/18 09:35:19;;;;;;;7.38;3.00;;;13.60;60.40;;;;;;4918212;29;20403;-68
2023/01/18 09:37:45;;;;;;;10.57;2.70;;;13.60;60.50;;;;;;4918782;29;20047;-70
2023/01/18 09:40:18;;;;;;;6.93;2.28;;;13.60;60.30;;;;;;4918055;29;20116;-70
2023/01/18 09:42:46;;;;;;;5.22;2.15;;;13.70;60.00;;;;;;4917702;29;20066;-68
2023/01/18 09:45:33;;;;;;;9.45;2.17;;;13.80;59.90;;;;;;4901959;29;20063;-68
2023/01/18 09:48:41;;;;;;;7.30;2.42;;;14.00;59.80;;;;;;4918263;29;20108;-69
2023/01/18 09:51:13;;;;;;;7.30;2.10;;;14.20;59.70;;;;;;4893248;29;20052;-69
2023/01/18 09:53:56;;;;;;;4.65;1.88;;;14.30;59.50;;;;;;4895263;29;20471;-70
2023/01/18 09:56:31;;;;;;;9.25;2.47;;;14.40;59.50;;;;;;4901498;29;20460;-69
2023/01/18 09:59:02;;;;;;;10.15;2.55;;;14.50;59.30;;;;;;4902032;29;20059;-69
2023/01/18 10:01:31;;;;;;;6.35;1.65;;;14.70;59.40;;;;;;4917670;29;20052;-69
2023/01/18 10:04:11;;;;;;;11.77;2.60;;;14.70;59.30;;;;;;4918211;29;20044;-74
2023/01/18 10:06:51;;;;;;;11.55;3.13;;;14.70;59.30;;;;;;4910954;29;20096;-68
2023/01/18 10:09:23;;;;;;;24.48;4.38;;;14.80;59.20;;;;;;4918104;29;20047;-69
2023/01/18 10:12:26;;;;;;;26.45;2.80;;;14.70;59.00;;;;;;4918211;29;20088;-68
2023/01/18 10:15:06;;;;;;;13.70;3.03;;;14.70;58.30;;;;;;4906909;29;20052;-69
2023/01/18 10:17:39;;;;;;;15.13;2.70;;;14.60;58.80;;;;;;4900637;29;20044;-69
2023/01/18 10:20:20;;;;;;;12.85;2.20;;;14.60;59.10;;;;;;4917946;29;20396;-70
2023/01/18 10:22:59;;;;;;;11.38;1.73;;;14.60;59.60;;;;;;4911274;29;20411;-73
2023/01/18 10:25:37;;;;;;;8.60;1.42;;;14.50;59.40;;;;;;4902035;29;20055;-69
2023/01/18 10:28:27;;;;;;;10.85;2.30;;;14.50;59.30;;;;;;4902043;29;20374;-70
2023/01/18 10:31:29;;;;;;;14.57;1.35;;;14.50;59.30;;;;;;4902248;29;20052;-70
2023/01/18 10:33:57;;;;;;;7.07;0.80;;;14.40;59.10;;;;;;4918603;29;20463;-73
2023/01/18 10:36:42;;;;;;;5.35;1.60;;;14.30;59.30;;;;;;4918623;29;20055;-70
2023/01/18 10:39:34;;;;;;;5.88;1.20;;;14.30;59.30;;;;;;4899771;29;20053;-71
2023/01/18 10:42:05;;;;;;;7.13;1.30;;;14.30;61.10;;;;;;4882201;29;20185;-70
2023/01/18 10:44:30;;;;;;;9.95;1.48;;;14.20;61.20;;;;;;4885420;29;20056;-69
2023/01/18 10:46:58;;;;;;;6.88;1.48;;;14.30;62.60;;;;;;4886039;29;20059;-69
2023/01/18 10:49:37;;;;;;;6.75;1.38;;;14.30;63.50;;;;;;4918485;29;20044;-70
2023/01/18 10:52:17;;;;;;;6.47;1.33;;;14.30;64.50;;;;;;4930657;29;20076;-71
2023/01/18 10:54:54;;;;;;;4.88;1.33;;;14.30;65.30;;;;;;4937529;29;20459;-71
2023/01/18 10:57:29;;;;;;;5.75;1.27;;;14.30;65.90;;;;;;4937355;29;20474;-68
2023/01/18 10:59:56;;;;;;;4.82;1.58;;;14.20;65.20;;;;;;4920848;29;20059;-73
2023/01/18 11:02:25;;;;;;;17.23;5.18;;;14.20;66.00;;;;;;4937616;29;20086;-70
2023/01/18 11:04:58;;;;;;;17.33;3.30;;;14.20;67.40;;;;;;4937505;29;20490;-71
2023/01/18 11:07:28;;;;;;;12.90;2.53;;;14.20;67.50;;;;;;4901671;29;20044;-70
2023/01/18 11:09:58;;;;;;;11.43;2.63;;;14.30;66.70;;;;;;4916370;29;20075;-74
2023/01/18 11:12:51;;;;;;;11.65;2.33;;;14.20;66.40;;;;;;4901538;29;20107;-72
2023/01/18 11:15:17;;;;;;;16.20;2.45;;;14.20;66.10;;;;;;4918954;29;20052;-71
2023/01/18 11:17:53;;;;;;;11.32;2.00;;;14.20;65.90;;;;;;4920093;29;20060;-72
2023/01/18 11:20:46;;;;;;;26.40;3.40;;;14.10;65.70;;;;;;4904070;29;20064;-69
2023/01/18 11:23:15;;;;;;;11.63;2.65;;;14.10;67.10;;;;;;4920355;29;20375;-68
2023/01/18 11:25:44;;;;;;;13.80;2.70;;;14.10;66.40;;;;;;4918693;29;20044;-68
2023/01/18 11:28:22;;;;;;;16.10;2.78;;;14.10;65.50;;;;;;4919822;29;20063;-67
2023/01/18 11:30:51;;;;;;;14.45;2.10;;;14.10;65.10;;;;;;4916874;29;20053;-70
2023/01/18 11:33:19;;;;;;;15.25;2.30;;;14.00;64.90;;;;;;4903838;29;20260;-71
2023/01/18 11:35:45;;;;;;;11.30;2.33;;;14.00;64.70;;;;;;4920750;29;20060;-71
2023/01/18 11:38:17;;;;;;;10.85;2.60;;;14.00;64.70;;;;;;4903698;29;20052;-69
2023/01/18 11:40:44;;;;;;;11.93;1.75;;;14.00;64.80;;;;;;4920776;29;20371;-69
2023/01/18 11:43:16;;;;;;;13.20;1.60;;;14.00;64.80;;;;;;4920432;29;20048;-73
2023/01/18 11:46:05;;;;;;;8.38;1.38;;;13.90;64.70;;;;;;4912252;29;20122;-71
2023/01/18 11:48:51;;;;;;;8.00;1.70;;;13.90;64.30;;;;;;4870277;29;20071;-73
2023/01/18 11:51:32;;;;;;;8.35;1.83;;;13.90;63.90;;;;;;4911018;29;20064;-68
2023/01/18 11:54:42;;;;;;;12.30;1.80;;;14.00;63.80;;;;;;4911544;29;20127;-69
2023/01/18 11:57:11;;;;;;;8.93;1.40;;;14.10;63.70;;;;;;4839428;29;20124;-69
2023/01/18 11:59:42;;;;;;;9.93;1.42;;;14.20;63.60;;;;;;4848589;29;20057;-73
2023/01/18 12:02:38;;;;;;;6.20;1.58;;;14.20;63.40;;;;;;4876862;29;20424;-73
2023/01/18 12:05:16;;;;;;;6.85;2.25;;;14.30;63.40;;;;;;4903203;29;20456;-72
2023/01/18 12:08:03;;;;;;;10.02;1.65;;;14.40;63.20;;;;;;4919721;29;20451;-70
2023/01/18 12:10:57;;;;;;;11.43;1.55;;;14.50;63.20;;;;;;4895586;29;20055;-71
2023/01/18 12:13:56;;;;;;;13.80;2.10;;;14.50;63.30;;;;;;4885781;29;20155;-71
2023/01/18 12:16:29;;;;;;;15.50;1.67;;;14.50;63.40;;;;;;4919243;29;20123;-72
2023/01/18 12:19:21;;;;;;;14.23;2.10;;;14.50;63.00;;;;;;4906598;29;20128;-70
2023/01/18 12:22:18;;;;;;;9.15;1.25;;;14.50;62.80;;;;;;4903911;29;20767;-72
2023/01/18 12:25:04;;;;;;;5.47;1.13;;;14.50;62.70;;;;;;4892236;29;20363;-71
2023/01/18 12:30:08;;;;;;;9.63;1.35;;;14.50;62.00;;;;;;5124406;27;20348;-72
2023/01/18 12:32:46;;;;;;;8.05;1.20;;;14.50;62.50;;;;;;5094119;28;20104;-73
2023/01/18 12:35:15;;;;;;;5.80;1.10;;;14.50;61.80;;;;;;5112032;28;20079;-72
2023/01/18 12:38:13;;;;;;;6.25;0.75;;;14.40;61.30;;;;;;5111016;28;20108;-70
2023/01/18 12:40:41;;;;;;;8.13;0.90;;;14.40;57.30;;;;;;5097263;28;20462;-74
2023/01/18 12:43:25;;;;;;;5.68;1.00;;;14.10;58.20;;;;;;5109736;28;20046;-73
2023/01/18 12:46:03;;;;;;;3.35;0.60;;;13.80;58.60;;;;;;5092546;28;20082;-72
2023/01/18 12:48:47;;;;;;;2.60;0.98;;;13.60;59.90;;;;;;5091916;28;20048;-74
2023/01/18 12:51:20;;;;;;;4.95;0.80;;;13.40;59.50;;;;;;5110440;28;20040;-77
2023/01/18 12:54:09;;;;;;;2.90;0.73;;;13.20;60.00;;;;;;5091685;28;20123;-73
2023/01/18 12:56:40;;;;;;;3.83;0.52;;;13.20;60.80;;;;;;5092981;28;20473;-71
2023/01/18 12:59:14;;;;;;;4.45;0.98;;;13.10;61.40;;;;;;5090653;28;20060;-72
2023/01/18 13:01:46;;;;;;;5.18;0.68;;;13.10;61.60;;;;;;5111832;28;20119;-70
2023/01/18 13:04:34;;;;;;;4.63;1.05;;;13.00;61.70;;;;;;5110113;28;20471;-70
2023/01/18 13:07:06;;;;;;;3.35;0.70;;;12.90;61.20;;;;;;5111122;28;20131;-70
2023/01/18 13:09:42;;;;;;;6.60;0.65;;;12.90;61.80;;;;;;5109850;28;20051;-71
2023/01/18 13:12:08;;;;;;;4.57;0.75;;;12.80;61.90;;;;;;5091225;28;20082;-70
2023/01/18 13:15:13;;;;;;;4.57;0.63;;;12.80;62.10;;;;;;5093153;28;20096;-72
2023/01/18 13:18:02;;;;;;;2.88;0.50;;;12.80;62.20;;;;;;5110771;28;20115;-73
2023/01/18 13:20:47;;;;;;;2.20;0.60;;;12.70;62.40;;;;;;5109206;28;20405;-72
2023/01/18 13:23:20;;;;;;;1.77;0.32;;;12.70;62.40;;;;;;5109554;28;20090;-73
2023/01/18 13:26:26;;;;;;;0.80;0.33;;;12.70;62.70;;;;;;5109885;28;20135;-69
2023/01/18 13:29:10;;;;;;;1.52;0.30;;;12.60;62.40;;;;;;5083930;28;20465;-72
2023/01/18 13:31:39;;;;;;;3.38;0.50;;;12.50;62.50;;;;;;5104375;28;20126;-69
2023/01/18 13:34:27;;;;;;;1.98;0.40;;;12.50;63.00;;;;;;5118745;28;20466;-69
2023/01/18 13:36:54;;;;;;;2.10;0.35;;;12.40;63.10;;;;;;5130662;28;20051;-69
2023/01/18 13:39:21;;;;;;;1.00;0.30;;;12.40;63.40;;;;;;5117045;28;20112;-71
2023/01/18 13:42:07;;;;;;;3.38;0.35;;;12.30;63.60;;;;;;5104982;28;20476;-73
2023/01/18 13:44:48;;;;;;;4.95;0.40;;;12.30;64.00;;;;;;5098072;28;20434;-71
2023/01/18 13:47:44;;;;;;;2.15;0.68;;;12.30;64.00;;;;;;5094197;28;20040;-71
2023/01/18 13:50:34;;;;;;;1.77;0.30;;;12.30;64.20;;;;;;5096421;28;20067;-71
2023/01/18 13:53:12;;;;;;;3.65;0.47;;;12.20;64.20;;;;;;5079650;28;20048;-75
2023/01/18 13:55:45;;;;;;;4.03;0.47;;;12.30;64.40;;;;;;5074021;28;20044;-74
2023/01/18 13:58:25;;;;;;;4.78;0.63;;;12.40;63.40;;;;;;5095706;28;20057;-72
2023/01/18 14:02:50;;;;;;;7.90;1.27;;;12.50;60.60;;;;;;5060251;27;1990779;-71
2023/01/18 14:05:24;;;;;;;8.18;1.02;;;12.60;60.60;;;;;;5112736;28;20043;-68
2023/01/18 14:07:54;;;;;;;;;;;12.70;60.40;;;;;;5093845;28;20052;-69
2023/01/18 14:10:24;;;;;;;17.60;2.08;;;12.70;60.60;;;;;;5112095;28;19974;-69
2023/01/18 14:12:52;;;;;;;5.90;1.00;;;12.80;60.90;;;;;;5112185;28;20469;-69
2023/01/18 14:15:51;;;;;;;7.10;0.70;;;12.60;59.20;;;;;;5112148;28;20370;-68
2023/01/18 14:18:24;;;;;;;10.32;1.45;;;12.30;58.70;;;;;;5056749;28;20183;-71
2023/01/18 14:21:16;;;;;;;22.33;2.15;;;12.40;61.20;;;;;;5111997;28;20040;-71
2023/01/18 14:24:00;;;;;;;14.10;1.60;;;12.40;61.60;;;;;;5077031;28;20051;-74
2023/01/18 14:26:29;;;;;;;17.77;1.80;;;12.60;61.70;;;;;;5111501;28;20075;-70
2023/01/18 14:29:00;;;;;;;15.43;1.85;;;12.70;61.80;;;;;;5107661;28;20043;-70
2023/01/18 14:31:33;;;;;;;7.53;1.58;;;12.70;62.00;;;;;;5111682;28;20055;-71
2023/01/18 14:34:36;;;;;;;13.40;1.77;;;12.80;62.10;;;;;;5112069;28;20473;-72
2023/01/18 14:37:03;;;;;;;9.65;1.40;;;12.90;62.00;;;;;;5111800;28;20370;-71
2023/01/18 14:39:31;;;;;;;10.07;1.60;;;12.90;62.00;;;;;;5111198;28;20060;-71
2023/01/18 14:42:02;;;;;;;6.90;0.88;;;13.00;61.80;;;;;;5111595;28;20134;-72
2023/01/18 14:44:44;;;;;;;11.55;1.10;;;12.90;61.50;;;;;;5111435;28;20134;-71
2023/01/18 14:47:19;;;;;;;3.45;0.77;;;13.00;61.30;;;;;;5112019;28;20408;-70
2023/01/18 14:49:45;;;;;;;13.27;1.40;;;13.00;61.10;;;;;;5104666;28;20048;-70
2023/01/18 14:52:17;;;;;;;5.53;1.00;;;13.00;60.90;;;;;;5111644;28;20054;-70
2023/01/18 14:54:54;;;;;;;9.98;0.90;;;13.10;60.90;;;;;;5093760;28;20058;-71
2023/01/18 14:57:21;;;;;;;5.88;1.17;;;13.10;60.80;;;;;;5093515;28;20083;-71
2023/01/18 15:00:01;;;;;;;7.05;1.15;;;13.10;60.70;;;;;;5085328;28;20432;-70
2023/01/18 15:02:36;;;;;;;6.78;0.82;;;13.10;61.10;;;;;;5110670;28;20121;-71
2023/01/18 15:05:16;;;;;;;6.05;1.20;;;13.10;60.40;;;;;;5111299;28;20424;-71
2023/01/18 15:07:54;;;;;;;6.97;1.25;;;13.10;60.30;;;;;;5111160;28;20090;-70
2023/01/18 15:10:21;;;;;;;3.78;0.77;;;13.10;60.20;;;;;;5111032;28;20044;-71
2023/01/18 15:12:51;;;;;;;9.25;0.80;;;13.20;60.20;;;;;;5097078;28;20043;-71
2023/01/18 15:15:23;;;;;;;4.50;0.60;;;13.10;59.90;;;;;;5097631;28;20086;-69
2023/01/18 15:17:50;;;;;;;2.63;0.50;;;13.20;59.60;;;;;;5089558;28;20044;-71
2023/01/18 15:20:15;;;;;;;4.57;0.70;;;13.10;59.40;;;;;;5079820;28;20055;-71
2023/01/18 15:22:41;;;;;;;6.20;0.90;;;13.10;59.30;;;;;;5097198;28;20043;-68
2023/01/18 15:25:21;;;;;;;8.13;0.85;;;13.20;59.50;;;;;;5097355;28;20115;-71
2023/01/18 15:27:51;;;;;;;8.23;0.93;;;13.10;59.40;;;;;;5096487;28;20040;-68
2023/01/18 15:30:21;;;;;;;7.63;1.00;;;13.10;59.70;;;;;;5097335;28;20050;-70
2023/01/18 15:32:48;;;;;;;10.90;1.30;;;13.10;59.90;;;;;;5096864;28;20530;-69
2023/01/18 15:35:15;;;;;;;8.82;1.20;;;13.00;59.60;;;;;;5097294;28;20495;-69
2023/01/18 15:37:41;;;;;;;5.03;1.05;;;13.10;59.70;;;;;;5096415;28;20055;-69
2023/01/18 15:40:06;;;;;;;7.70;0.85;;;13.20;59.80;;;;;;5096914;28;20044;-69
2023/01/18 15:42:45;;;;;;;3.50;0.68;;;13.30;59.80;;;;;;5096718;28;20370;-71
2023/01/18 15:45:24;;;;;;;9.10;1.02;;;13.40;59.80;;;;;;5079147;28;20044;-71
2023/01/18 15:47:55;;;;;;;7.30;0.52;;;13.50;59.90;;;;;;5096721;28;20044;-71
2023/01/18 15:50:25;;;;;;;3.42;0.88;;;13.60;59.90;;;;;;5096922;28;20036;-72
2023/01/18 15:53:04;;;;;;;6.90;0.80;;;13.80;59.90;;;;;;5096280;28;20500;-69
2023/01/18 15:55:44;;;;;;;9.73;0.80;;;13.90;59.80;;;;;;5078881;28;20040;-70
2023/01/18 15:58:18;;;;;;;6.97;1.08;;;13.90;59.70;;;;;;5096353;28;20050;-71
2023/01/18 16:00:53;;;;;;;6.70;0.88;;;14.00;59.70;;;;;;5095973;28;20048;-71
2023/01/18 16:03:24;;;;;;;6.95;1.15;;;14.10;59.60;;;;;;5096599;28;20048;-69
2023/01/18 16:06:17;;;;;;;7.57;1.08;;;14.10;59.40;;;;;;5096252;28;20051;-69
2023/01/18 16:08:59;;;;;;;8.82;0.80;;;14.20;59.50;;;;;;5093208;28;20430;-69
2023/01/18 16:11:34;;;;;;;5.15;0.50;;;14.30;59.50;;;;;;5096585;28;20051;-69
2023/01/18 16:14:06;;;;;;;6.88;1.45;;;14.40;59.50;;;;;;5096066;28;20047;-72
2023/01/18 16:16:40;;;;;;;5.13;0.60;;;14.40;59.40;;;;;;5096140;28;20040;-72
2023/01/18 16:19:05;;;;;;;;;;;14.50;59.10;;;;;;5096497;28;21897;-74
2023/01/18 16:21:39;;;;;;;6.65;0.98;;;14.50;58.90;;;;;;5096012;28;20007;-71
2023/01/18 16:24:14;;;;;;;4.45;0.40;;;14.60;58.90;;;;;;5095149;28;20403;-72
2023/01/18 16:26:42;;;;;;;4.93;0.70;;;14.60;58.70;;;;;;5095951;28;20047;-70
2023/01/18 16:29:10;;;;;;;13.82;0.90;;;14.70;58.60;;;;;;5094404;28;20044;-72
2023/01/18 16:31:40;;;;;;;10.23;0.70;;;14.80;58.60;;;;;;5078191;28;20098;-73
2023/01/18 16:34:20;;;;;;;7.72;0.80;;;14.80;58.80;;;;;;5095666;28;20054;-73
2023/01/18 16:36:47;;;;;;;12.75;0.68;;;14.80;59.60;;;;;;5095814;28;20080;-77
2023/01/18 16:39:13;;;;;;;8.63;1.00;;;14.90;60.00;;;;;;5095706;28;20362;-71
2023/01/18 16:41:41;;;;;;;12.68;1.25;;;15.00;60.30;;;;;;5078056;28;20051;-71
2023/01/18 16:44:10;;;;;;;6.57;0.88;;;15.00;60.50;;;;;;5095629;28;20060;-74
2023/01/18 16:46:35;;;;;;;18.13;2.15;;;15.10;60.60;;;;;;5095837;28;20092;-72
2023/01/18 16:49:01;;;;;;;9.40;0.60;;;15.10;60.80;;;;;;5095515;28;20167;-72
2023/01/18 16:51:29;;;;;;;7.15;0.50;;;15.10;60.80;;;;;;5077904;28;20400;-72
2023/01/18 16:53:55;;;;;;;6.00;0.80;;;15.20;60.80;;;;;;5095295;28;20454;-72
2023/01/18 16:56:21;;;;;;;9.55;0.85;;;15.20;60.80;;;;;;5095133;28;20463;-70
2023/01/18 16:58:47;;;;;;;4.05;0.60;;;15.30;60.90;;;;;;5095115;28;20071;-74
2023/01/18 17:01:14;;;;;;;9.07;1.20;;;15.30;60.90;;;;;;5077156;28;20056;-73
2023/01/18 17:03:43;;;;;;;3.97;0.50;;;15.30;60.90;;;;;;5077452;28;20055;-73
2023/01/18 17:06:17;;;;;;;11.30;0.77;;;15.30;60.90;;;;;;5095100;28;20548;-74
2023/01/18 17:08:43;;;;;;;6.55;0.50;;;15.40;60.90;;;;;;5095745;28;20407;-70
2023/01/18 17:11:11;;;;;;;5.93;1.25;;;15.40;60.70;;;;;;5095275;28;20070;-71
2023/01/18 17:13:38;;;;;;;8.65;1.00;;;15.40;60.60;;;;;;5095392;28;20123;-72
2023/01/18 17:16:04;;;;;;;6.53;0.50;;;15.40;60.70;;;;;;5077579;28;20052;-72
2023/01/18 17:18:30;;;;;;;4.57;0.68;;;15.40;60.90;;;;;;5077218;28;20044;-72
2023/01/18 17:20:56;;;;;;;7.32;1.15;;;15.50;60.80;;;;;;5077691;28;20048;-70
2023/01/18 17:23:24;;;;;;;6.10;0.77;;;15.50;60.80;;;;;;5094940;28;20036;-75
2023/01/18 17:25:50;;;;;;;6.68;0.65;;;15.60;60.70;;;;;;5077276;28;20524;-73
2023/01/18 17:28:17;;;;;;;8.55;0.88;;;15.70;60.70;;;;;;5077138;28;20048;-73
2023/01/18 17:30:46;;;;;;;7.63;0.80;;;15.70;60.60;;;;;;5077154;28;20374;-73
2023/01/18 17:33:17;;;;;;;9.15;1.60;;;15.60;60.20;;;;;;5094754;28;20105;-73
2023/01/18 17:35:43;;;;;;;8.35;1.17;;;15.60;59.60;;;;;;5094782;28;20066;-73
2023/01/18 17:38:09;;;;;;;6.45;1.00;;;15.60;58.90;;;;;;5094881;28;20119;-74
2023/01/18 17:40:34;;;;;;;5.43;0.95;;;15.50;57.30;;;;;;5086889;28;20047;-74
2023/01/18 17:43:00;;;;;;;1.88;0.70;;;15.50;56.70;;;;;;5077125;28;20043;-73
2023/01/18 17:45:26;;;;;;;7.55;0.65;;;15.40;56.90;;;;;;5094769;28;20036;-73
2023/01/18 17:47:52;;;;;;;7.53;1.00;;;15.40;56.70;;;;;;5094851;28;20040;-73
2023/01/18 17:50:23;;;;;;;5.13;0.50;;;15.30;56.40;;;;;;5094585;28;20052;-76
2023/01/18 17:52:50;;;;;;;5.65;0.95;;;15.20;56.40;;;;;;5076953;28;20055;-74
2023/01/18 17:55:15;;;;;;;4.55;1.10;;;15.20;56.80;;;;;;5094458;28;20145;-71
2023/01/18 17:57:41;;;;;;;8.68;1.45;;;15.10;57.00;;;;;;5094543;28;20087;-72
2023/01/18 18:00:10;;;;;;;6.15;0.50;;;15.10;57.30;;;;;;5094533;28;20070;-73